WEATHER DATA

TODAY
Time Temp. Dewp. Hum. Wind dir Wind speed Wind gust Bar. 1h Prec. 24h Prec.
00:06 18.2 14.1 77 330 0.3 1.4 1025.7 0.0000 0.0000
00:16 18 13.9 77 315 0.3 1.4 1025.4 0.0000 0.0000
00:26 17.9 13.8 77 343 0.3 1.1 1025.4 0.0000 0.0000
00:36 17.7 13.8 78 315 0.3 1.4 1025.5 0.0000 0.0000
00:46 17.6 13.7 78 308 0.3 1.4 1025.5 0.0000 0.0000
00:56 17.4 13.5 78 326 0.3 1.1 1025.5 0.0000 0.0000
01:06 17.3 13.6 79 336 0.3 1.1 1025.5 0.0000 0.0000
01:17 17.2 13.5 79 315 0.3 1.4 1025.4 0.0000 0.0000
01:26 17.2 13.5 79 0 0.3 0.8 1025.7 0.0000 0.0000
01:36 17.1 13.4 79 351 0.3 0.8 1025.3 0.0000 0.0000
01:47 17.1 13.4 79 335 0.3 1.1 1025.5 0.0000 0.0000
01:57 17.1 13.4 79 350 0.3 1.1 1025.4 0.0000 0.0000
02:06 17.1 13.4 79 321 0.3 1.1 1025.3 0.0000 0.0000
02:16 17 13.3 79 331 0.3 1.1 1025.3 0.0000 0.0000
02:27 17 13.3 79 356 0.3 1.1 1025.1 0.0000 0.0000
02:37 17.1 13.4 79 356 0.3 0.8 1025.2 0.0000 0.0000
02:46 17 13.3 79 0 0.3 0.8 1025.3 0.0000 0.0000
02:57 17 13.3 79 356 0.3 1.1 1025.3 0.0000 0.0000
03:07 16.9 13.2 79 352 0.3 1.1 1025.2 0.0000 0.0000
03:17 16.8 13.1 79 334 0.3 0.8 1025.3 0.0000 0.0000
03:27 16.8 13.3 80 348 0.3 0.8 1025.4 0.0000 0.0000
03:37 16.7 13.2 80 338 0.3 0.8 1025.5 0.0000 0.0000
03:47 16.6 13.1 80 347 0.3 0.8 1025.4 0.0000 0.0000
03:56 16.5 13 80 351 0.3 0.8 1025.5 0.0000 0.0000
04:07 16.5 13 80 348 0.3 0.8 1025.5 0.0000 0.0000
04:17 16.4 12.9 80 336 0.3 0.8 1025.4 0.0000 0.0000
04:27 16.3 12.8 80 348 0.3 0.8 1025.2 0.0000 0.0000
04:37 16.2 12.7 80 345 0.3 0.8 1025.3 0.0000 0.0000
04:47 16.1 12.7 80 341 0.3 0.8 1025.2 0.0000 0.0000
04:57 16 12.6 80 332 0.3 1.1 1025.1 0.0000 0.0000
05:07 15.9 12.5 80 350 0.3 0.8 1025 0.0000 0.0000
05:17 15.9 12.6 81 348 0.3 1.1 1025.2 0.0000 0.0000
05:27 15.8 12.5 81 344 0.3 0.8 1025.1 0.0000 0.0000
05:37 15.8 12.5 81 315 0.3 0.8 1025.2 0.0000 0.0000
05:47 15.7 12.5 81 343 0.3 0.8 1025.1 0.0000 0.0000
05:57 15.8 12.5 81 355 0.3 0.8 1025.2 0.0000 0.0000
06:07 15.8 12.5 81 334 0.3 0.8 1025.1 0.0000 0.0000
06:17 15.8 12.5 81 345 0.3 1.1 1025.1 0.0000 0.0000
06:28 15.7 12.5 81 350 0.3 0.8 1025.2 0.0000 0.0000
06:37 15.7 12.5 81 0 0.3 0.8 1025.2 0.0000 0.0000
06:47 15.7 12.5 81 352 0.3 0.8 1025.3 0.0000 0.0000
06:58 15.7 12.6 82 347 0.3 0.8 1025.3 0.0000 0.0000
07:08 15.7 12.6 82 270 0.3 0.8 1025.3 0.0000 0.0000
07:17 15.8 12.7 82 329 0.3 0.8 1025.4 0.0000 0.0000
07:27 15.9 12.8 82 315 0.3 0.8 1025.4 0.0000 0.0000
07:38 15.9 12.8 82 270 0.3 0.8 1025.5 0.0000 0.0000
07:48 15.9 12.8 82 343 0.3 1.1 1025.3 0.0000 0.0000
07:57 16 12.9 82 270 0.3 0.8 1025.4 0.0000 0.0000
08:08 16.1 13 82 329 0.3 0.8 1025.3 0.0000 0.0000
08:18 16.2 13.1 82 321 0.3 0.8 1025.4 0.0000 0.0000
08:28 16.3 13.4 83 315 0.3 0.8 1025.3 0.0000 0.0000
08:48 16.7 13.8 83 350 0.3 0.8 1025.4 0.0000 0.0000
08:58 17 13.9 82 240 0.3 1.1 1025.5 0.0000 0.0000
09:07 17.3 14.4 83 315 0.3 0.8 1025.3 0.0000 0.0000
09:18 17.6 14.7 83 327 0.3 0.8 1025.5 0.0000 0.0000
09:28 18.1 14.8 81 270 0.3 0.8 1025.5 0.0000 0.0000
09:38 18.5 15.2 81 315 0.3 1.1 1025.4 0.0000 0.0000
09:48 18.9 15 78 213 0.3 1.1 1025.4 0.0000 0.0000
09:58 19.3 15.4 78 270 0.3 1.1 1025.4 0.0000 0.0000
10:08 19.7 15.6 77 338 0.3 1.1 1025.3 0.0000 0.0000
10:18 20 15.6 76 351 0.8 1.7 1025.2 0.0000 0.0000
10:28 20.4 16 76 0.3 1.1 1025.3 0.0000 0.0000
10:38 20.9 16.1 74 348 0.3 1.4 1025.2 0.0000 0.0000
10:48 22.1 16.6 71 225 0.3 1.1 1025.2 0.0000 0.0000
10:58 23.3 17.1 68 321 0.8 1.7 1025.2 0.0000 0.0000
11:08 24 17.5 67 354 0.8 1.4 1025.2 0.0000 0.0000
11:18 24.5 17.5 65 208 0.3 1.4 1025.1 0.0000 0.0000
11:28 25.1 17.6 63 341 0.8 1.7 1025 0.0000 0.0000
11:39 25.3 18 64 319 0.8 3.1 1024.9 0.0000 0.0000
11:48 25.7 17.9 62 351 0.3 2.2 1024.9 0.0000 0.0000
11:58 26.1 18.5 63 332 0.8 2.2 1025 0.0000 0.0000
12:09 26.4 18.8 63 302 0.3 1.4 1024.9 0.0000 0.0000
12:19 26.8 18.7 61 270 0.3 1.1 1024.8 0.0000 0.0000
12:25 27.1 19.5 63 341 0.3 1.7 1024.8 0.0000 0.0000
12:34 27.4 19.2 61 333 0.3 1.1 1024.8 0.0000 0.0000
12:44 27.8 19.6 61 325 0.3 1.4 1024.8 0.0000 0.0000
12:55 27.9 19.2 59 232 0.8 1.7 1024.7 0.0000 0.0000
13:05 28.1 19.1 58 306 0.8 2.2 1024.7 0.0000 0.0000
13:14 28.3 19.5 59 322 0.8 3.1 1024.4 0.0000 0.0000
13:25 28.3 19.2 58 288 0.8 2.2 1024.3 0.0000 0.0000
13:35 28.5 19.2 57 317 1.1 2.8 1024.6 0.0000 0.0000
13:44 28.6 20.1 60 161 0.3 1.7 1024.6 0.0000 0.0000
13:54 28.8 18.3 53 198 0.3 1.7 1024.3 0.0000 0.0000
14:05 28.6 18.7 55 232 0.3 1.4 1024.2 0.0000 0.0000
14:15 28.4 17.9 53 339 1.7 3.1 1024.2 0.0000 0.0000
14:24 27.9 17.7 54 329 0.8 2.2 1024.1 0.0000 0.0000
14:35 27.5 17.9 56 332 0.8 2.8 1024.1 0.0000 0.0000
14:45 27.9 18.3 56 327 0.8 2.2 1024.1 0.0000 0.0000
14:55 27.4 17.9 56 318 0.8 1.7 1024 0.0000 0.0000
15:05 27 17.2 55 344 0.8 2.5 1024 0.0000 0.0000
15:14 27.1 18.1 58 315 0.8 1.7 1023.8 0.0000 0.0000
15:23 27.3 17.8 56 356 0.8 2.5 1023.9 0.0000 0.0000
15:34 27.5 17.9 56 348 0.8 2.2 1023.9 0.0000 0.0000
15:44 27.7 18.1 56 352 0.8 2.2 1023.9 0.0000 0.0000
15:54 27.6 17.5 54 341 1.1 2.8 1023.7 0.0000 0.0000
16:03 27.2 17.4 55 341 1.4 4.2 1023.6 0.0000 0.0000
16:14 27.1 17.3 55 334 0.8 2.5 1023.7 0.0000 0.0000
16:24 27 17.5 56 337 0.8 1.7 1023.7 0.0000 0.0000
16:34 27 17.8 57 321 0.8 1.7 1023.7 0.0000 0.0000
16:44 26.8 17.6 57 341 0.8 1.4 1023.6 0.0000 0.0000
16:54 26.7 17.5 57 333 0.8 2.2 1023.4 0.0000 0.0000
17:04 26.7 17.5 57 296 0.8 2.2 1023.4 0.0000 0.0000
17:14 26.4 16.9 56 339 1.1 2.2 1023.3 0.0000 0.0000
17:24 26.4 16.9 56 330 0.8 1.4 1023.3 0.0000 0.0000
17:34 26.4 17.2 57 325 0.8 1.7 1023.2 0.0000 0.0000
17:44 26.2 17.3 58 307 0.8 2.5 1023 0.0000 0.0000
17:55 26.1 16.9 57 337 0.8 1.7 1023.1 0.0000 0.0000
18:04 26 17.1 58 329 0.3 1.7 1023.2 0.0000 0.0000
18:14 25.8 16.9 58 315 0.3 1.7 1023.1 0.0000 0.0000
18:24 25.7 16.8 58 270 0.3 1.7 1023 0.0000 0.0000
18:34 25.5 17.2 60 315 0.3 0.8 1022.9 0.0000 0.0000
18:44 25.5 17.2 60 315 0.3 1.4 1023 0.0000 0.0000
18:54 25.1 16.8 60 270 0.3 0.8 1023.1 0.0000 0.0000
19:05 24.8 17 62 333 0.3 0.8 1023 0.0000 0.0000
19:14 24.5 16.7 62 350 0.3 0.8 1023.1 0.0000 0.0000
19:24 24.1 16.6 63 0 0.3 0.8 1023 0.0000 0.0000
19:35 23.7 16.5 64 305 0.3 0.8 1023.1 0.0000 0.0000
19:45 23.5 16.8 66 270 0.3 1.1 1023.2 0.0000 0.0000
19:54 23.2 16.7 67 332 0.3 0.8 1023.3 0.0000 0.0000

DAY STATISTIC

2018-08-20
TEMPERATURE
AVERAGE
21.4
HIGH
28.8
13:54
LOW
15.7
05:47
PRESSURE
AVERAGE
1024.7
HIGH
1025.7
00:06
LOW
1022.9
18:34
DEWPOINT
AVERAGE
15.5
HIGH
20.1
13:44
LOW
12.5
05:07
HUMIDITY
AVERAGE
70
HIGH
83
08:28
LOW
53
13:54
WIND SPEED
AVERAGE
0.5
HIGH
1.7
14:15
WIND GUST
AVERAGE
1.4
HIGH
4.2
16:03
WIND DIRECTION
PREVAILING
NW
44.5%
N
39.5
NE
0.0
E
0.0
SE
0.0
S
1.7
SW
5.0
W
8.4
NW
44.5
PRECIPITATION
RAIN HOUR
0.0
RAIN DAY
0.0
TEMPERATURE (°C)
LOW
15.7
HIGH
28.8
AVERAGE
21.4
PRESSURE (hpa)
LOW
1022.9
HIGH
1025.7
AVERAGE
1024.7
DEVICE